createdAt,value
2023-02-16T00:01:22.382Z,43.13
2023-02-16T00:03:53.200Z,41.95
2023-02-16T00:06:22.578Z,42.30
2023-02-16T00:08:57.176Z,41.38
2023-02-16T00:11:49.790Z,42.22
2023-02-16T00:14:26.177Z,40.20
2023-02-16T00:16:56.227Z,45.03
2023-02-16T00:19:28.013Z,45.97
2023-02-16T00:21:59.760Z,48.08
2023-02-16T00:24:30.884Z,49.63
2023-02-16T00:27:00.782Z,45.63
2023-02-16T00:29:33.435Z,49.10
2023-02-16T00:32:06.011Z,49.42
2023-02-16T00:34:37.175Z,49.92
2023-02-16T00:37:08.295Z,51.22
2023-02-16T00:39:38.730Z,47.08
2023-02-16T00:42:14.798Z,52.28
2023-02-16T00:44:48.028Z,40.63
2023-02-16T00:47:21.760Z,49.85
2023-02-16T00:49:53.319Z,48.28
2023-02-16T00:52:35.605Z,47.00
2023-02-16T00:55:09.576Z,43.20
2023-02-16T00:57:44.049Z,43.28
2023-02-16T01:00:22.287Z,44.38
2023-02-16T01:02:58.586Z,47.97
2023-02-16T01:05:28.793Z,45.88
2023-02-16T01:08:12.473Z,47.10
2023-02-16T01:10:59.699Z,45.25
2023-02-16T01:13:31.032Z,48.20
2023-02-16T01:16:01.653Z,47.60
2023-02-16T01:18:32.159Z,46.38
2023-02-16T01:21:01.533Z,45.55
2023-02-16T01:23:30.715Z,45.08
2023-02-16T01:25:59.833Z,44.00
2023-02-16T01:28:28.944Z,41.60
2023-02-16T01:30:58.091Z,43.83
2023-02-16T01:33:28.624Z,42.38
2023-02-16T01:35:58.897Z,42.22
2023-02-16T01:38:30.284Z,40.97
2023-02-16T01:41:10.586Z,42.97
2023-02-16T01:43:47.988Z,42.45
2023-02-16T01:46:25.443Z,42.58
2023-02-16T01:48:55.983Z,42.60
2023-02-16T01:51:30.464Z,43.47
2023-02-16T01:54:08.728Z,43.90
2023-02-16T01:56:44.530Z,42.83
2023-02-16T01:59:28.718Z,46.35
2023-02-16T02:01:59.363Z,44.75
2023-02-16T02:04:59.304Z,47.60
2023-02-16T02:07:36.207Z,45.95
2023-02-16T02:10:11.317Z,45.85
2023-02-16T02:12:50.932Z,45.45
2023-02-16T02:15:27.926Z,46.05
2023-02-16T02:17:57.089Z,46.67
2023-02-16T02:21:00.648Z,48.80
2023-02-16T02:23:50.200Z,45.92
2023-02-16T02:27:08.698Z,46.22
2023-02-16T02:30:09.940Z,44.55
2023-02-16T02:33:21.525Z,48.00
2023-02-16T02:35:59.643Z,47.75
2023-02-16T02:38:38.225Z,44.72
2023-02-16T02:41:20.221Z,43.72
2023-02-16T02:43:58.367Z,42.20
2023-02-16T02:46:32.435Z,44.28
2023-02-16T02:49:01.496Z,44.22
2023-02-16T02:51:30.819Z,44.40
2023-02-16T02:54:27.412Z,46.97
2023-02-16T02:57:24.356Z,45.83
2023-02-16T03:00:20.159Z,44.35
2023-02-16T03:02:53.220Z,43.88
2023-02-16T03:05:24.627Z,44.53
2023-02-16T03:08:06.384Z,45.33
2023-02-16T03:10:56.301Z,43.42
2023-02-16T03:13:33.711Z,46.30
2023-02-16T03:16:11.370Z,44.27
2023-02-16T03:19:00.896Z,47.15
2023-02-16T03:21:47.718Z,47.10
2023-02-16T03:24:41.156Z,44.72
2023-02-16T03:27:28.575Z,41.22
2023-02-16T03:29:59.090Z,41.10
2023-02-16T03:32:29.529Z,39.72
2023-02-16T03:34:58.708Z,39.42
2023-02-16T03:37:27.931Z,39.15
2023-02-16T03:40:15.778Z,38.45
2023-02-16T03:42:51.038Z,38.25
2023-02-16T03:45:22.349Z,38.00
2023-02-16T03:47:52.762Z,37.78
2023-02-16T03:50:22.062Z,40.35
2023-02-16T03:52:51.079Z,37.15
2023-02-16T03:55:20.465Z,39.25
2023-02-16T03:57:49.462Z,38.67
2023-02-16T04:00:19.599Z,40.13
2023-02-16T04:02:49.627Z,39.40
2023-02-16T04:05:20.207Z,39.58
2023-02-16T04:07:49.264Z,38.28
2023-02-16T04:10:18.602Z,38.08
2023-02-16T04:12:47.315Z,40.00
2023-02-16T04:15:20.873Z,38.28
2023-02-16T04:17:50.473Z,38.95
2023-02-16T04:20:23.900Z,37.22
2023-02-16T04:22:53.654Z,37.47
2023-02-16T04:25:23.143Z,36.15
2023-02-16T04:27:53.270Z,36.40
2023-02-16T04:30:25.203Z,36.97
2023-02-16T04:32:54.732Z,38.85
2023-02-16T04:35:25.354Z,39.72
2023-02-16T04:37:54.442Z,37.67
2023-02-16T04:40:24.192Z,37.22
2023-02-16T04:42:53.194Z,38.45
2023-02-16T04:45:22.684Z,37.72
2023-02-16T04:47:52.378Z,35.55
2023-02-16T04:50:22.084Z,34.90
2023-02-16T04:52:52.435Z,35.42
2023-02-16T04:55:21.555Z,35.80
2023-02-16T04:57:50.532Z,36.85
2023-02-16T05:00:21.364Z,36.50
2023-02-16T05:02:50.406Z,36.78
2023-02-16T05:05:19.684Z,36.65
2023-02-16T05:07:48.663Z,36.42
2023-02-16T05:10:19.199Z,37.08
2023-02-16T05:13:05.707Z,36.67
2023-02-16T05:15:34.752Z,36.37
2023-02-16T05:18:03.770Z,38.28
2023-02-16T05:20:46.573Z,39.08
2023-02-16T05:23:16.331Z,36.88
2023-02-16T05:25:46.722Z,39.28
2023-02-16T05:28:15.815Z,40.35
2023-02-16T05:30:44.922Z,43.38
2023-02-16T05:33:13.911Z,39.90
2023-02-16T05:35:42.923Z,37.45
2023-02-16T05:38:11.924Z,40.67
2023-02-16T05:40:40.948Z,42.83
2023-02-16T05:43:11.290Z,43.47
2023-02-16T05:45:40.511Z,42.70
2023-02-16T05:48:09.445Z,42.72
2023-02-16T05:50:38.488Z,41.65
2023-02-16T05:53:07.487Z,44.00
2023-02-16T05:55:36.549Z,43.97
2023-02-16T05:58:05.572Z,41.55
2023-02-16T06:00:36.709Z,41.72
2023-02-16T06:03:05.873Z,39.63
2023-02-16T06:05:35.297Z,40.90
2023-02-16T06:08:04.333Z,41.13
2023-02-16T06:10:33.361Z,38.60
2023-02-16T06:13:02.349Z,37.78
2023-02-16T06:15:31.409Z,37.42
2023-02-16T06:18:03.279Z,37.03
2023-02-16T06:20:32.293Z,36.55
2023-02-16T06:23:01.363Z,36.50
2023-02-16T06:25:30.615Z,37.53
2023-02-16T06:27:59.699Z,37.63
2023-02-16T06:30:29.220Z,36.80
2023-02-16T06:32:58.291Z,37.63
2023-02-16T06:35:28.747Z,35.45
2023-02-16T06:37:59.164Z,37.22
2023-02-16T06:40:28.427Z,39.13
2023-02-16T06:42:57.577Z,38.95
2023-02-16T06:45:26.597Z,35.83
2023-02-16T06:47:55.557Z,36.15
2023-02-16T06:50:24.580Z,36.75
2023-02-16T06:52:54.939Z,36.70
2023-02-16T06:55:23.969Z,34.67
2023-02-16T06:57:52.941Z,34.67
2023-02-16T07:00:22.831Z,33.40
2023-02-16T07:02:51.851Z,33.50
2023-02-16T07:05:20.914Z,32.83
2023-02-16T07:07:49.869Z,34.40
2023-02-16T07:10:20.729Z,33.33
2023-02-16T07:12:50.018Z,30.38
2023-02-16T07:15:19.278Z,32.45
2023-02-16T07:17:48.291Z,28.83
2023-02-16T07:20:18.515Z,29.38
2023-02-16T07:22:47.496Z,30.63
2023-02-16T07:25:16.615Z,28.48
2023-02-16T07:27:47.005Z,28.55
2023-02-16T07:30:17.115Z,27.35
2023-02-16T07:32:46.304Z,27.95
2023-02-16T07:35:15.669Z,30.27
2023-02-16T07:37:44.732Z,29.08
2023-02-16T07:40:14.547Z,30.08
2023-02-16T07:42:43.536Z,30.83
2023-02-16T07:45:13.922Z,30.70
2023-02-16T07:47:42.963Z,30.60
2023-02-16T07:50:12.761Z,28.13
2023-02-16T07:52:41.768Z,29.98
2023-02-16T07:55:12.061Z,30.05
2023-02-16T07:57:41.566Z,30.73
2023-02-16T08:00:13.426Z,29.33
2023-02-16T08:02:42.761Z,29.77
2023-02-16T08:05:11.861Z,28.23
2023-02-16T08:07:41.871Z,28.65
2023-02-16T08:10:13.035Z,26.70
2023-02-16T08:12:42.122Z,26.48
2023-02-16T08:15:13.619Z,26.90
2023-02-16T08:17:43.546Z,26.67
2023-02-16T08:20:13.737Z,25.45
2023-02-16T08:22:43.682Z,28.52
2023-02-16T08:25:15.963Z,25.65
2023-02-16T08:27:45.016Z,25.42
2023-02-16T08:30:18.288Z,25.33
2023-02-16T08:32:50.877Z,24.70
2023-02-16T08:35:20.398Z,26.48
2023-02-16T08:37:50.759Z,23.63
2023-02-16T08:40:24.368Z,24.00
2023-02-16T08:42:53.536Z,24.67
2023-02-16T08:45:23.942Z,21.48
2023-02-16T08:47:53.284Z,23.27
2023-02-16T08:50:22.594Z,23.27
2023-02-16T08:52:51.570Z,22.13
2023-02-16T08:55:20.551Z,22.35
2023-02-16T08:57:49.534Z,22.13
2023-02-16T09:00:39.044Z,22.35
2023-02-16T09:03:09.491Z,20.90
2023-02-16T09:05:38.935Z,20.40
2023-02-16T09:08:07.936Z,20.45
2023-02-16T09:10:37.130Z,19.98
2023-02-16T09:13:06.300Z,18.02
2023-02-16T09:15:36.976Z,20.63
2023-02-16T09:18:09.172Z,18.38
2023-02-16T09:20:41.750Z,19.88
2023-02-16T09:23:12.451Z,19.67
2023-02-16T09:25:42.568Z,20.30
2023-02-16T09:28:11.922Z,19.45
2023-02-16T09:30:41.248Z,18.98
2023-02-16T09:33:10.235Z,19.80
2023-02-16T09:35:41.706Z,20.15
2023-02-16T09:38:10.891Z,19.45
2023-02-16T09:40:39.960Z,18.23
2023-02-16T09:43:31.868Z,18.17
2023-02-16T09:46:04.015Z,23.10
2023-02-16T09:48:38.774Z,24.23
2023-02-16T09:51:12.385Z,23.35
2023-02-16T09:53:45.184Z,24.40
2023-02-16T09:56:23.693Z,25.02
2023-02-16T09:58:58.806Z,23.65
2023-02-16T10:01:36.401Z,22.05
2023-02-16T10:04:31.862Z,22.95
2023-02-16T10:07:18.309Z,23.65
2023-02-16T10:09:53.574Z,25.38
2023-02-16T10:12:28.299Z,25.40
2023-02-16T10:15:07.635Z,27.45
2023-02-16T10:17:46.939Z,27.38
2023-02-16T10:20:20.683Z,31.02
2023-02-16T10:22:56.814Z,30.02
2023-02-16T10:25:38.332Z,29.17
2023-02-16T10:28:17.718Z,29.67
2023-02-16T10:30:54.904Z,31.42
2023-02-16T10:33:41.297Z,32.53
2023-02-16T10:36:23.380Z,31.60
2023-02-16T10:39:03.671Z,31.25
2023-02-16T10:41:38.137Z,31.23
2023-02-16T10:44:16.736Z,32.28
2023-02-16T10:46:53.374Z,33.75
2023-02-16T10:49:22.773Z,26.98
2023-02-16T10:51:53.165Z,34.90
2023-02-16T10:54:28.027Z,31.83
2023-02-16T10:57:01.175Z,34.53
2023-02-16T10:59:38.657Z,33.78
2023-02-16T11:04:52.558Z,32.10
2023-02-16T11:07:24.140Z,31.50
2023-02-16T11:09:57.377Z,31.25
2023-02-16T11:12:32.505Z,30.35
2023-02-16T11:15:06.350Z,32.42
2023-02-16T11:17:53.682Z,31.70
2023-02-16T11:20:32.683Z,30.92
2023-02-16T11:23:22.663Z,31.85
2023-02-16T11:26:03.088Z,31.08
2023-02-16T11:28:35.991Z,29.83
2023-02-16T11:31:19.987Z,30.75
2023-02-16T11:34:00.293Z,30.85
2023-02-16T11:36:36.627Z,30.25
2023-02-16T11:39:11.096Z,30.45
2023-02-16T11:41:47.209Z,30.35
2023-02-16T11:44:28.697Z,29.80
2023-02-16T11:46:59.151Z,31.15
2023-02-16T11:49:35.359Z,28.02
2023-02-16T11:52:25.172Z,28.52
2023-02-16T11:54:58.584Z,27.35
2023-02-16T11:57:33.793Z,25.55
2023-02-16T12:00:17.533Z,26.08
2023-02-16T12:03:33.396Z,26.75
2023-02-16T12:06:20.946Z,26.92
2023-02-16T12:09:08.432Z,26.73
2023-02-16T12:11:50.933Z,24.60
2023-02-16T12:14:42.384Z,24.40
2023-02-16T12:17:27.899Z,24.90
2023-02-16T12:20:06.976Z,22.17
2023-02-16T12:22:45.790Z,22.30
2023-02-16T12:25:27.505Z,22.55
2023-02-16T12:28:05.160Z,22.35
2023-02-16T12:30:52.739Z,23.63
2023-02-16T12:33:41.876Z,21.85
2023-02-16T12:36:44.590Z,21.55
2023-02-16T12:39:23.430Z,20.85
2023-02-16T12:42:10.225Z,21.50
2023-02-16T12:44:46.064Z,19.45
2023-02-16T12:47:22.687Z,21.63
2023-02-16T12:49:55.086Z,21.37
2023-02-16T12:52:38.752Z,21.48
2023-02-16T12:55:22.423Z,22.13
2023-02-16T12:58:03.022Z,20.17
2023-02-16T13:00:43.781Z,24.08
2023-02-16T13:03:33.406Z,23.35
2023-02-16T13:06:15.704Z,22.45
2023-02-16T13:08:52.547Z,19.85
2023-02-16T13:11:25.740Z,18.63
2023-02-16T13:14:02.025Z,20.50
2023-02-16T13:16:43.677Z,19.00
2023-02-16T13:19:16.532Z,17.83
2023-02-16T13:22:27.727Z,18.15
2023-02-16T13:25:40.439Z,15.82
2023-02-16T13:28:31.575Z,16.10
2023-02-16T13:31:17.203Z,15.77
2023-02-16T13:34:09.656Z,15.88
2023-02-16T13:37:25.117Z,15.18
2023-02-16T13:40:51.780Z,14.82
2023-02-16T13:43:35.155Z,14.45
2023-02-16T13:46:11.636Z,15.27
2023-02-16T13:48:48.974Z,15.40
2023-02-16T13:53:57.627Z,14.30
2023-02-16T13:56:38.618Z,14.50
2023-02-16T14:00:00.921Z,14.07
2023-02-16T14:02:59.839Z,13.77
2023-02-16T14:05:39.758Z,13.32
2023-02-16T14:08:24.912Z,13.50
2023-02-16T14:11:05.411Z,14.40
2023-02-16T14:13:49.627Z,15.35
2023-02-16T14:16:33.548Z,14.10
2023-02-16T14:19:17.868Z,14.13
2023-02-16T14:21:49.179Z,14.50
2023-02-16T14:24:33.299Z,14.30
2023-02-16T14:27:07.773Z,14.10
2023-02-16T14:29:41.962Z,14.15
2023-02-16T14:32:26.373Z,13.95
2023-02-16T14:34:58.828Z,13.82
2023-02-16T14:37:40.572Z,13.82
2023-02-16T14:40:40.344Z,13.93
2023-02-16T14:43:26.418Z,12.93
2023-02-16T14:46:20.199Z,13.38
2023-02-16T14:50:04.084Z,14.32
2023-02-16T14:53:09.724Z,13.60
2023-02-16T14:56:13.697Z,13.40
2023-02-16T14:58:56.768Z,13.80
2023-02-16T15:01:28.193Z,13.32
2023-02-16T15:03:58.502Z,13.48
2023-02-16T15:06:37.229Z,13.55
2023-02-16T15:09:15.750Z,13.45
2023-02-16T15:12:09.117Z,14.65
2023-02-16T15:14:45.245Z,13.70
2023-02-16T15:17:27.427Z,14.02
2023-02-16T15:20:04.666Z,13.98
2023-02-16T15:25:05.487Z,15.10
2023-02-16T15:27:35.016Z,14.20
2023-02-16T15:30:24.137Z,13.43
2023-02-16T15:32:57.469Z,14.55
2023-02-16T15:35:35.964Z,14.00
2023-02-16T15:38:22.318Z,14.77
2023-02-16T15:40:55.106Z,14.70
2023-02-16T15:43:32.385Z,13.85
2023-02-16T15:46:05.950Z,14.43
2023-02-16T15:48:39.105Z,14.13
2023-02-16T15:51:15.604Z,15.15
2023-02-16T15:53:51.673Z,14.55
2023-02-16T15:56:39.578Z,14.60
2023-02-16T16:02:06.172Z,13.88
2023-02-16T16:04:41.063Z,13.50
2023-02-16T16:07:17.649Z,14.43
2023-02-16T16:09:48.614Z,14.67
2023-02-16T16:12:21.975Z,13.38
2023-02-16T16:14:57.077Z,11.65
2023-02-16T16:17:30.685Z,12.85
2023-02-16T16:20:19.061Z,12.35
2023-02-16T16:22:56.754Z,11.65
2023-02-16T16:25:49.015Z,14.65
2023-02-16T16:28:38.315Z,14.85
2023-02-16T16:31:11.891Z,11.80
2023-02-16T16:33:57.936Z,11.55
2023-02-16T16:36:34.288Z,9.70
2023-02-16T16:39:28.015Z,9.48
2023-02-16T16:42:24.290Z,9.95
2023-02-16T16:45:05.522Z,12.55
2023-02-16T16:47:40.239Z,11.35
2023-02-16T16:50:33.677Z,10.43
2023-02-16T16:53:03.332Z,11.05
2023-02-16T16:55:35.373Z,11.57
2023-02-16T16:58:08.054Z,11.27
2023-02-16T17:00:41.935Z,11.15
2023-02-16T17:03:16.857Z,11.38
2023-02-16T17:05:47.485Z,12.10
2023-02-16T17:08:16.500Z,13.05
2023-02-16T17:10:45.519Z,13.80
2023-02-16T17:13:17.533Z,12.07
2023-02-16T17:15:52.289Z,10.68
2023-02-16T17:18:23.222Z,11.63
2023-02-16T17:20:53.845Z,9.38
2023-02-16T17:23:23.850Z,10.55
2023-02-16T17:25:53.104Z,11.35
2023-02-16T17:28:22.934Z,11.55
2023-02-16T17:30:52.144Z,12.73
2023-02-16T17:33:21.112Z,12.88
2023-02-16T17:35:50.196Z,13.00
2023-02-16T17:38:23.923Z,23.63
2023-02-16T17:40:55.888Z,22.77
2023-02-16T17:43:26.616Z,19.63
2023-02-16T17:45:59.627Z,17.52
2023-02-16T17:48:31.019Z,18.00
2023-02-16T17:51:00.624Z,17.83
2023-02-16T17:53:30.928Z,17.75
2023-02-16T17:56:00.027Z,18.63
2023-02-16T17:58:28.979Z,18.70
2023-02-16T18:00:58.042Z,15.10
2023-02-16T18:03:27.032Z,14.73
2023-02-16T18:05:56.734Z,14.70
2023-02-16T18:08:26.121Z,14.48
2023-02-16T18:11:02.147Z,15.60
2023-02-16T18:13:32.287Z,15.77
2023-02-16T18:16:03.814Z,14.45
2023-02-16T18:18:34.892Z,14.05
2023-02-16T18:21:04.407Z,18.52
2023-02-16T18:23:33.965Z,14.82
2023-02-16T18:26:05.469Z,16.85
2023-02-16T18:28:36.422Z,16.15
2023-02-16T18:31:08.127Z,18.52
2023-02-16T18:33:37.326Z,18.83
2023-02-16T18:36:07.533Z,19.58
2023-02-16T18:38:36.874Z,20.20
2023-02-16T18:41:08.294Z,22.65
2023-02-16T18:43:37.319Z,20.75
2023-02-16T18:46:08.166Z,22.35
2023-02-16T18:48:38.140Z,21.38
2023-02-16T18:51:08.419Z,21.10
2023-02-16T18:53:38.334Z,21.08
2023-02-16T18:56:10.869Z,18.35
2023-02-16T18:58:41.491Z,19.88
2023-02-16T19:01:15.657Z,19.73
2023-02-16T19:03:47.147Z,18.77
2023-02-16T19:06:16.240Z,22.83
2023-02-16T19:08:47.505Z,21.08
2023-02-16T19:11:19.185Z,23.08
2023-02-16T19:13:48.255Z,21.73
2023-02-16T19:16:18.270Z,21.00
2023-02-16T19:18:47.715Z,24.05
2023-02-16T19:21:18.687Z,24.60
2023-02-16T19:23:51.894Z,24.42
2023-02-16T19:26:26.206Z,23.58
2023-02-16T19:28:55.535Z,23.90
2023-02-16T19:31:28.671Z,22.30
2023-02-16T19:34:01.276Z,22.77
2023-02-16T19:36:32.154Z,22.63
2023-02-16T19:39:01.680Z,23.48
2023-02-16T19:41:38.703Z,21.80
2023-02-16T19:44:08.304Z,22.92
2023-02-16T19:46:37.779Z,24.27
2023-02-16T19:49:08.076Z,24.13
2023-02-16T19:51:37.254Z,26.58
2023-02-16T19:54:06.503Z,27.75
2023-02-16T19:56:40.523Z,26.92
2023-02-16T19:59:10.562Z,25.17
2023-02-16T20:01:41.798Z,26.25
2023-02-16T20:04:12.841Z,27.05
2023-02-16T20:06:42.600Z,27.77
2023-02-16T20:09:13.511Z,25.75
2023-02-16T20:11:46.801Z,23.60
2023-02-16T20:14:16.225Z,23.52
2023-02-16T20:16:46.354Z,23.75
2023-02-16T20:19:16.006Z,25.55
2023-02-16T20:21:46.580Z,25.17
2023-02-16T20:24:16.459Z,25.08
2023-02-16T20:26:51.356Z,26.33
2023-02-16T20:29:21.009Z,28.73
2023-02-16T20:31:55.683Z,26.95
2023-02-16T20:34:27.383Z,25.25
2023-02-16T20:36:56.712Z,24.02
2023-02-16T20:39:26.736Z,24.50
2023-02-16T20:42:01.220Z,28.77
2023-02-16T20:44:32.328Z,24.60
2023-02-16T20:47:01.945Z,24.98
2023-02-16T20:49:31.863Z,26.77
2023-02-16T20:52:01.656Z,26.60
2023-02-16T20:54:31.702Z,26.90
2023-02-16T20:57:02.120Z,25.83
2023-02-16T20:59:31.241Z,28.40
2023-02-16T21:02:00.309Z,26.10
2023-02-16T21:04:29.484Z,28.73
2023-02-16T21:06:58.607Z,30.20
2023-02-16T21:09:27.632Z,29.00
2023-02-16T21:11:56.983Z,28.13
2023-02-16T21:14:27.389Z,29.02
2023-02-16T21:16:56.401Z,29.35
2023-02-16T21:19:25.398Z,30.05
2023-02-16T21:21:54.435Z,27.55
2023-02-16T21:24:23.624Z,28.42
2023-02-16T21:26:52.630Z,28.50
2023-02-16T21:29:21.618Z,29.67
2023-02-16T21:31:52.114Z,28.92
2023-02-16T21:34:21.287Z,29.02
2023-02-16T21:36:50.529Z,28.80
2023-02-16T21:39:19.627Z,29.55
2023-02-16T21:41:48.827Z,30.63
2023-02-16T21:44:18.342Z,29.45
2023-02-16T21:46:48.794Z,29.42
2023-02-16T21:49:20.155Z,30.42
2023-02-16T21:51:49.840Z,32.00
2023-02-16T21:54:41.065Z,28.95
2023-02-16T21:57:09.050Z,29.10
2023-02-16T21:59:38.221Z,30.00
2023-02-16T22:02:07.181Z,29.30
2023-02-16T22:04:37.587Z,29.63
2023-02-16T22:07:06.573Z,29.42
2023-02-16T22:09:35.578Z,32.47
2023-02-16T22:12:04.684Z,34.67
2023-02-16T22:14:33.985Z,34.70
2023-02-16T22:17:04.328Z,30.75
2023-02-16T22:19:33.410Z,28.05
2023-02-16T22:22:03.836Z,27.10
2023-02-16T22:24:32.853Z,27.80
2023-02-16T22:27:01.880Z,30.75
2023-02-16T22:29:31.239Z,29.90
2023-02-16T22:32:00.291Z,29.15
2023-02-16T22:34:29.343Z,30.15
2023-02-16T22:36:58.378Z,30.15
2023-02-16T22:39:31.144Z,28.77
2023-02-16T22:42:00.400Z,29.83
2023-02-16T22:44:30.132Z,30.80
2023-02-16T22:46:59.251Z,29.60
2023-02-16T22:49:28.307Z,30.30
2023-02-16T22:51:57.620Z,29.30
2023-02-16T22:54:28.036Z,27.42
2023-02-16T22:56:57.087Z,25.85
2023-02-16T22:59:26.223Z,26.48
2023-02-16T23:01:55.197Z,25.83
2023-02-16T23:04:24.370Z,25.77
2023-02-16T23:06:53.397Z,24.92
2023-02-16T23:09:23.612Z,25.52
2023-02-16T23:11:54.041Z,26.52
2023-02-16T23:14:23.065Z,26.42
2023-02-16T23:16:54.523Z,27.10
2023-02-16T23:19:28.164Z,27.75
2023-02-16T23:21:57.223Z,27.85
2023-02-16T23:24:26.626Z,28.38
2023-02-16T23:26:57.726Z,28.02
2023-02-16T23:29:27.598Z,29.80
2023-02-16T23:31:56.673Z,28.60
2023-02-16T23:34:25.814Z,27.05
2023-02-16T23:36:54.924Z,26.67
2023-02-16T23:39:24.002Z,25.75
2023-02-16T23:41:53.062Z,25.33
2023-02-16T23:44:23.627Z,25.38
2023-02-16T23:46:52.680Z,25.52
2023-02-16T23:49:21.776Z,24.85
2023-02-16T23:51:50.856Z,26.65
2023-02-16T23:54:19.963Z,25.77
2023-02-16T23:56:50.207Z,24.70
2023-02-16T23:59:20.377Z,25.33
